Buffalo Creek, Colorado
Current Conditions -  °F | °C
As of 1:53 AM on Monday 20 Oct 2014 (Local Time) from KAPA Reporting Station
Few Clouds Few Clouds  
Wind Chill: 51°   Ceiling: Unl
Heat Index: 51°   Visibility: 10mi
Dew Point: 36°   Wind: 7mph
Humidity: 56%   Direction: 180°S
Pressure: 30.19"   Gusts: NA
Location:  39.39°N, 105.27°W
Report Text: KAPA 200753Z 18006KT 10SM FEW220 11/02 A3019 RMK AO2 SLP174 T01060022
Loading
Personal Weather Stations






























Interactive Weather Map
Tropical Storm Tracking
New forecast layout! Learn more

10-Day Weather Forecast

Advertisements
Track Severe Weather on mobile